sensor_id;sensor_type;location;lat;lon;timestamp;P1;durP1;ratioP1;P2;durP2;ratioP2
34872;SDS011;21084;51.098;14.506;2023-02-28T01:15:15;37.28;;;14.90;;
34872;SDS011;21084;51.098;14.506;2023-02-28T01:18:07;30.23;;;14.32;;
34872;SDS011;21084;51.098;14.506;2023-02-28T01:23:06;34.10;;;14.98;;
34872;SDS011;21084;51.098;14.506;2023-02-28T01:25:38;36.90;;;15.48;;
34872;SDS011;21084;51.098;14.506;2023-02-28T01:28:08;34.55;;;14.05;;
34872;SDS011;21084;51.098;14.506;2023-02-28T01:30:38;36.45;;;15.45;;
34872;SDS011;21084;51.098;14.506;2023-02-28T01:33:07;35.10;;;15.15;;
34872;SDS011;21084;51.098;14.506;2023-02-28T01:35:36;30.20;;;14.10;;
34872;SDS011;21084;51.098;14.506;2023-02-28T01:38:05;30.55;;;14.98;;
34872;SDS011;21084;51.098;14.506;2023-02-28T01:40:47;31.75;;;14.00;;
34872;SDS011;21084;51.098;14.506;2023-02-28T01:43:19;31.33;;;14.05;;
34872;SDS011;21084;51.098;14.506;2023-02-28T01:45:51;32.08;;;14.05;;
34872;SDS011;21084;51.098;14.506;2023-02-28T01:48:21;37.40;;;15.18;;
34872;SDS011;21084;51.098;14.506;2023-02-28T01:50:54;33.03;;;14.27;;
34872;SDS011;21084;51.098;14.506;2023-02-28T01:53:27;39.13;;;14.45;;
34872;SDS011;21084;51.098;14.506;2023-02-28T01:56:00;36.33;;;15.45;;
34872;SDS011;21084;51.098;14.506;2023-02-28T01:58:32;33.22;;;15.32;;
34872;SDS011;21084;51.098;14.506;2023-02-28T02:01:02;39.10;;;15.68;;
34872;SDS011;21084;51.098;14.506;2023-02-28T02:03:31;34.55;;;14.55;;
34872;SDS011;21084;51.098;14.506;2023-02-28T02:06:00;34.63;;;14.63;;
34872;SDS011;21084;51.098;14.506;2023-02-28T02:08:30;31.40;;;13.93;;
34872;SDS011;21084;51.098;14.506;2023-02-28T02:10:59;32.83;;;14.43;;
34872;SDS011;21084;51.098;14.506;2023-02-28T02:13:32;30.02;;;13.93;;
34872;SDS011;21084;51.098;14.506;2023-02-28T02:16:14;30.92;;;14.55;;
34872;SDS011;21084;51.098;14.506;2023-02-28T02:24:40;32.90;;;14.18;;
34872;SDS011;21084;51.098;14.506;2023-02-28T02:27:52;30.23;;;14.43;;
34872;SDS011;21084;51.098;14.506;2023-02-28T02:30:41;32.88;;;14.30;;
34872;SDS011;21084;51.098;14.506;2023-02-28T02:33:27;30.10;;;14.07;;
34872;SDS011;21084;51.098;14.506;2023-02-28T02:36:12;37.88;;;14.02;;
34872;SDS011;21084;51.098;14.506;2023-02-28T02:38:47;32.95;;;13.73;;
34872;SDS011;21084;51.098;14.506;2023-02-28T02:41:23;39.25;;;14.68;;
34872;SDS011;21084;51.098;14.506;2023-02-28T02:43:57;34.95;;;14.50;;
34872;SDS011;21084;51.098;14.506;2023-02-28T02:46:32;38.42;;;14.90;;
34872;SDS011;21084;51.098;14.506;2023-02-28T02:49:03;32.97;;;14.52;;
34872;SDS011;21084;51.098;14.506;2023-02-28T02:51:38;42.30;;;14.30;;
34872;SDS011;21084;51.098;14.506;2023-02-28T02:54:11;32.85;;;15.15;;
34872;SDS011;21084;51.098;14.506;2023-02-28T02:56:44;33.38;;;14.88;;
34872;SDS011;21084;51.098;14.506;2023-02-28T02:59:15;32.33;;;14.45;;
34872;SDS011;21084;51.098;14.506;2023-02-28T03:01:48;33.22;;;15.85;;
34872;SDS011;21084;51.098;14.506;2023-02-28T03:04:22;38.45;;;15.48;;
34872;SDS011;21084;51.098;14.506;2023-02-28T03:06:54;38.42;;;16.75;;
34872;SDS011;21084;51.098;14.506;2023-02-28T03:09:24;37.30;;;15.70;;
34872;SDS011;21084;51.098;14.506;2023-02-28T03:11:54;41.38;;;17.50;;
34872;SDS011;21084;51.098;14.506;2023-02-28T03:14:30;41.63;;;17.52;;
34872;SDS011;21084;51.098;14.506;2023-02-28T03:17:19;41.08;;;17.73;;
34872;SDS011;21084;51.098;14.506;2023-02-28T03:20:02;40.00;;;17.75;;
34872;SDS011;21084;51.098;14.506;2023-02-28T03:25:29;41.78;;;16.45;;
34872;SDS011;21084;51.098;14.506;2023-02-28T03:28:05;39.17;;;16.02;;
34872;SDS011;21084;51.098;14.506;2023-02-28T03:30:41;45.53;;;19.85;;
34872;SDS011;21084;51.098;14.506;2023-02-28T03:33:21;55.47;;;25.33;;
34872;SDS011;21084;51.098;14.506;2023-02-28T03:35:54;54.38;;;24.40;;
34872;SDS011;21084;51.098;14.506;2023-02-28T03:38:28;56.05;;;23.15;;
34872;SDS011;21084;51.098;14.506;2023-02-28T03:41:02;45.85;;;21.23;;
34872;SDS011;21084;51.098;14.506;2023-02-28T03:43:36;49.95;;;21.95;;
34872;SDS011;21084;51.098;14.506;2023-02-28T03:46:10;50.33;;;22.67;;
34872;SDS011;21084;51.098;14.506;2023-02-28T03:48:43;47.00;;;20.63;;
34872;SDS011;21084;51.098;14.506;2023-02-28T03:51:16;49.95;;;20.75;;
34872;SDS011;21084;51.098;14.506;2023-02-28T03:53:52;51.97;;;19.63;;
34872;SDS011;21084;51.098;14.506;2023-02-28T03:56:24;51.60;;;20.20;;
34872;SDS011;21084;51.098;14.506;2023-02-28T03:59:00;49.45;;;20.75;;
34872;SDS011;21084;51.098;14.506;2023-02-28T04:01:33;53.78;;;21.83;;
34872;SDS011;21084;51.098;14.506;2023-02-28T04:04:08;46.17;;;20.60;;
34872;SDS011;21084;51.098;14.506;2023-02-28T04:06:37;50.70;;;21.63;;
34872;SDS011;21084;51.098;14.506;2023-02-28T04:09:08;49.70;;;21.37;;
34872;SDS011;21084;51.098;14.506;2023-02-28T04:11:37;49.35;;;20.80;;
34872;SDS011;21084;51.098;14.506;2023-02-28T04:14:08;55.63;;;24.63;;
34872;SDS011;21084;51.098;14.506;2023-02-28T04:16:38;48.20;;;21.20;;
34872;SDS011;21084;51.098;14.506;2023-02-28T04:19:09;46.50;;;20.65;;
34872;SDS011;21084;51.098;14.506;2023-02-28T04:21:39;43.70;;;20.38;;
34872;SDS011;21084;51.098;14.506;2023-02-28T04:24:11;43.53;;;18.70;;
34872;SDS011;21084;51.098;14.506;2023-02-28T04:26:42;47.80;;;19.38;;
34872;SDS011;21084;51.098;14.506;2023-02-28T04:29:12;39.35;;;18.63;;
34872;SDS011;21084;51.098;14.506;2023-02-28T04:31:42;45.05;;;19.85;;
34872;SDS011;21084;51.098;14.506;2023-02-28T04:34:10;46.05;;;19.00;;
34872;SDS011;21084;51.098;14.506;2023-02-28T04:36:39;41.57;;;18.67;;
34872;SDS011;21084;51.098;14.506;2023-02-28T04:39:08;45.08;;;19.63;;
34872;SDS011;21084;51.098;14.506;2023-02-28T04:41:38;46.70;;;19.00;;
34872;SDS011;21084;51.098;14.506;2023-02-28T04:44:07;39.60;;;19.38;;
34872;SDS011;21084;51.098;14.506;2023-02-28T04:46:36;43.35;;;18.05;;
34872;SDS011;21084;51.098;14.506;2023-02-28T04:49:04;42.95;;;19.50;;
34872;SDS011;21084;51.098;14.506;2023-02-28T04:51:33;43.80;;;20.60;;
34872;SDS011;21084;51.098;14.506;2023-02-28T04:54:01;53.20;;;21.30;;
34872;SDS011;21084;51.098;14.506;2023-02-28T04:56:30;49.77;;;21.83;;
34872;SDS011;21084;51.098;14.506;2023-02-28T04:59:00;48.20;;;21.05;;
34872;SDS011;21084;51.098;14.506;2023-02-28T05:01:29;47.85;;;22.90;;
34872;SDS011;21084;51.098;14.506;2023-02-28T05:04:00;49.30;;;21.75;;
34872;SDS011;21084;51.098;14.506;2023-02-28T05:06:30;49.33;;;22.92;;
34872;SDS011;21084;51.098;14.506;2023-02-28T05:09:00;53.47;;;21.77;;
34872;SDS011;21084;51.098;14.506;2023-02-28T05:11:30;50.42;;;22.10;;
34872;SDS011;21084;51.098;14.506;2023-02-28T05:14:04;49.30;;;22.58;;
34872;SDS011;21084;51.098;14.506;2023-02-28T05:16:34;51.22;;;22.05;;
34872;SDS011;21084;51.098;14.506;2023-02-28T05:19:03;41.00;;;20.17;;
34872;SDS011;21084;51.098;14.506;2023-02-28T05:21:32;50.35;;;21.55;;
34872;SDS011;21084;51.098;14.506;2023-02-28T05:24:02;45.65;;;20.77;;
34872;SDS011;21084;51.098;14.506;2023-02-28T05:26:33;48.20;;;20.75;;
34872;SDS011;21084;51.098;14.506;2023-02-28T05:29:04;50.38;;;21.20;;
34872;SDS011;21084;51.098;14.506;2023-02-28T05:31:33;49.80;;;22.38;;
34872;SDS011;21084;51.098;14.506;2023-02-28T05:34:02;45.72;;;21.35;;
34872;SDS011;21084;51.098;14.506;2023-02-28T05:36:31;47.45;;;21.88;;
34872;SDS011;21084;51.098;14.506;2023-02-28T05:39:00;48.13;;;22.63;;
34872;SDS011;21084;51.098;14.506;2023-02-28T05:41:30;54.10;;;23.27;;
34872;SDS011;21084;51.098;14.506;2023-02-28T05:43:58;50.35;;;22.05;;
34872;SDS011;21084;51.098;14.506;2023-02-28T05:46:28;49.70;;;24.17;;
34872;SDS011;21084;51.098;14.506;2023-02-28T05:48:57;50.83;;;22.42;;
34872;SDS011;21084;51.098;14.506;2023-02-28T05:53:58;47.95;;;21.13;;
34872;SDS011;21084;51.098;14.506;2023-02-28T05:56:28;49.13;;;21.08;;
34872;SDS011;21084;51.098;14.506;2023-02-28T05:58:56;44.17;;;19.92;;
34872;SDS011;21084;51.098;14.506;2023-02-28T06:01:32;44.63;;;19.23;;
34872;SDS011;21084;51.098;14.506;2023-02-28T06:04:03;47.83;;;18.98;;
34872;SDS011;21084;51.098;14.506;2023-02-28T06:06:33;44.47;;;18.30;;
34872;SDS011;21084;51.098;14.506;2023-02-28T06:09:04;41.88;;;18.33;;
34872;SDS011;21084;51.098;14.506;2023-02-28T06:11:33;38.75;;;18.33;;
34872;SDS011;21084;51.098;14.506;2023-02-28T06:14:01;39.65;;;17.73;;
34872;SDS011;21084;51.098;14.506;2023-02-28T06:19:02;37.72;;;17.40;;
34872;SDS011;21084;51.098;14.506;2023-02-28T06:21:32;40.72;;;16.67;;
34872;SDS011;21084;51.098;14.506;2023-02-28T06:24:00;41.17;;;18.75;;
34872;SDS011;21084;51.098;14.506;2023-02-28T06:26:30;39.55;;;18.90;;
34872;SDS011;21084;51.098;14.506;2023-02-28T06:28:59;44.30;;;17.80;;
34872;SDS011;21084;51.098;14.506;2023-02-28T06:31:28;47.72;;;18.85;;
34872;SDS011;21084;51.098;14.506;2023-02-28T06:33:58;40.22;;;18.02;;
34872;SDS011;21084;51.098;14.506;2023-02-28T06:36:27;40.67;;;17.45;;
34872;SDS011;21084;51.098;14.506;2023-02-28T06:38:55;40.08;;;18.13;;
34872;SDS011;21084;51.098;14.506;2023-02-28T06:41:25;35.28;;;15.05;;
34872;SDS011;21084;51.098;14.506;2023-02-28T06:43:55;39.92;;;18.55;;
34872;SDS011;21084;51.098;14.506;2023-02-28T06:46:24;45.30;;;20.17;;
34872;SDS011;21084;51.098;14.506;2023-02-28T06:48:52;47.45;;;18.58;;
34872;SDS011;21084;51.098;14.506;2023-02-28T06:51:22;41.17;;;19.02;;
34872;SDS011;21084;51.098;14.506;2023-02-28T06:53:51;46.47;;;19.98;;
34872;SDS011;21084;51.098;14.506;2023-02-28T06:56:20;39.97;;;18.58;;
34872;SDS011;21084;51.098;14.506;2023-02-28T06:58:49;45.07;;;20.10;;
34872;SDS011;21084;51.098;14.506;2023-02-28T07:01:19;46.55;;;21.25;;
34872;SDS011;21084;51.098;14.506;2023-02-28T07:03:50;51.90;;;23.70;;
34872;SDS011;21084;51.098;14.506;2023-02-28T07:06:19;71.40;;;30.60;;
34872;SDS011;21084;51.098;14.506;2023-02-28T07:08:51;126.43;;;46.08;;
34872;SDS011;21084;51.098;14.506;2023-02-28T07:11:21;78.22;;;32.85;;
34872;SDS011;21084;51.098;14.506;2023-02-28T07:13:52;79.95;;;38.65;;
34872;SDS011;21084;51.098;14.506;2023-02-28T07:16:21;83.88;;;36.60;;
34872;SDS011;21084;51.098;14.506;2023-02-28T07:18:53;76.00;;;31.58;;
34872;SDS011;21084;51.098;14.506;2023-02-28T07:21:22;78.88;;;36.38;;
34872;SDS011;21084;51.098;14.506;2023-02-28T07:23:52;90.23;;;39.73;;
34872;SDS011;21084;51.098;14.506;2023-02-28T07:26:20;80.32;;;35.60;;
34872;SDS011;21084;51.098;14.506;2023-02-28T07:28:49;86.00;;;36.63;;
34872;SDS011;21084;51.098;14.506;2023-02-28T07:31:18;70.68;;;31.38;;
34872;SDS011;21084;51.098;14.506;2023-02-28T07:33:47;65.18;;;29.58;;
34872;SDS011;21084;51.098;14.506;2023-02-28T07:36:16;61.80;;;28.85;;
34872;SDS011;21084;51.098;14.506;2023-02-28T07:38:46;58.17;;;28.45;;
34872;SDS011;21084;51.098;14.506;2023-02-28T07:41:18;62.28;;;29.40;;
34872;SDS011;21084;51.098;14.506;2023-02-28T07:43:49;65.28;;;29.90;;
34872;SDS011;21084;51.098;14.506;2023-02-28T07:46:20;88.82;;;40.83;;
34872;SDS011;21084;51.098;14.506;2023-02-28T07:48:50;95.93;;;45.15;;
34872;SDS011;21084;51.098;14.506;2023-02-28T07:51:21;103.07;;;45.95;;
34872;SDS011;21084;51.098;14.506;2023-02-28T07:53:50;95.72;;;45.08;;
34872;SDS011;21084;51.098;14.506;2023-02-28T07:56:20;90.90;;;38.63;;
34872;SDS011;21084;51.098;14.506;2023-02-28T07:58:48;80.45;;;37.15;;
34872;SDS011;21084;51.098;14.506;2023-02-28T08:01:17;83.57;;;34.47;;
34872;SDS011;21084;51.098;14.506;2023-02-28T08:03:46;65.67;;;33.37;;
34872;SDS011;21084;51.098;14.506;2023-02-28T08:06:16;78.68;;;35.03;;
34872;SDS011;21084;51.098;14.506;2023-02-28T08:08:46;78.85;;;34.30;;
34872;SDS011;21084;51.098;14.506;2023-02-28T08:11:15;79.00;;;34.42;;
34872;SDS011;21084;51.098;14.506;2023-02-28T08:13:46;82.03;;;33.55;;
34872;SDS011;21084;51.098;14.506;2023-02-28T08:16:15;78.00;;;34.60;;
34872;SDS011;21084;51.098;14.506;2023-02-28T08:18:48;81.95;;;36.38;;
34872;SDS011;21084;51.098;14.506;2023-02-28T08:21:17;59.40;;;24.35;;
34872;SDS011;21084;51.098;14.506;2023-02-28T08:23:46;54.92;;;22.55;;
34872;SDS011;21084;51.098;14.506;2023-02-28T08:26:16;56.05;;;21.88;;
34872;SDS011;21084;51.098;14.506;2023-02-28T08:28:46;50.63;;;21.33;;
34872;SDS011;21084;51.098;14.506;2023-02-28T08:31:15;47.95;;;20.92;;
34872;SDS011;21084;51.098;14.506;2023-02-28T08:33:45;50.63;;;22.15;;
34872;SDS011;21084;51.098;14.506;2023-02-28T08:36:15;53.15;;;22.90;;
34872;SDS011;21084;51.098;14.506;2023-02-28T08:38:44;60.70;;;22.57;;
34872;SDS011;21084;51.098;14.506;2023-02-28T08:41:13;51.25;;;21.27;;
34872;SDS011;21084;51.098;14.506;2023-02-28T08:43:42;38.35;;;18.00;;
34872;SDS011;21084;51.098;14.506;2023-02-28T08:46:13;59.55;;;23.00;;
34872;SDS011;21084;51.098;14.506;2023-02-28T08:48:42;51.30;;;21.38;;
34872;SDS011;21084;51.098;14.506;2023-02-28T08:51:11;58.72;;;22.15;;
34872;SDS011;21084;51.098;14.506;2023-02-28T08:53:43;42.65;;;19.45;;
34872;SDS011;21084;51.098;14.506;2023-02-28T08:56:16;58.08;;;24.10;;
34872;SDS011;21084;51.098;14.506;2023-02-28T08:58:57;38.38;;;18.42;;
34872;SDS011;21084;51.098;14.506;2023-02-28T09:01:29;40.72;;;19.23;;
34872;SDS011;21084;51.098;14.506;2023-02-28T09:03:59;54.15;;;21.60;;
34872;SDS011;21084;51.098;14.506;2023-02-28T09:06:29;39.08;;;17.48;;
34872;SDS011;21084;51.098;14.506;2023-02-28T09:08:59;35.42;;;16.92;;
34872;SDS011;21084;51.098;14.506;2023-02-28T09:11:29;37.80;;;16.63;;
34872;SDS011;21084;51.098;14.506;2023-02-28T09:14:01;38.20;;;16.85;;
34872;SDS011;21084;51.098;14.506;2023-02-28T09:16:32;28.17;;;14.27;;
34872;SDS011;21084;51.098;14.506;2023-02-28T09:19:02;30.20;;;15.43;;
34872;SDS011;21084;51.098;14.506;2023-02-28T09:21:30;35.63;;;15.40;;
34872;SDS011;21084;51.098;14.506;2023-02-28T09:23:59;31.67;;;15.63;;
34872;SDS011;21084;51.098;14.506;2023-02-28T09:26:31;24.60;;;13.52;;
34872;SDS011;21084;51.098;14.506;2023-02-28T09:29:09;27.73;;;13.32;;
34872;SDS011;21084;51.098;14.506;2023-02-28T09:34:08;33.72;;;15.32;;
34872;SDS011;21084;51.098;14.506;2023-02-28T09:36:37;32.38;;;13.80;;
34872;SDS011;21084;51.098;14.506;2023-02-28T09:39:12;28.02;;;13.70;;
34872;SDS011;21084;51.098;14.506;2023-02-28T09:41:43;29.05;;;12.55;;
34872;SDS011;21084;51.098;14.506;2023-02-28T09:44:17;20.95;;;11.43;;
34872;SDS011;21084;51.098;14.506;2023-02-28T09:46:55;25.73;;;11.90;;
34872;SDS011;21084;51.098;14.506;2023-02-28T09:49:29;19.27;;;10.57;;
34872;SDS011;21084;51.098;14.506;2023-02-28T09:52:05;20.60;;;11.90;;
34872;SDS011;21084;51.098;14.506;2023-02-28T09:54:37;24.55;;;12.23;;
34872;SDS011;21084;51.098;14.506;2023-02-28T09:57:08;24.23;;;12.77;;
34872;SDS011;21084;51.098;14.506;2023-02-28T09:59:47;26.85;;;13.15;;
34872;SDS011;21084;51.098;14.506;2023-02-28T10:05:23;27.40;;;16.10;;
34872;SDS011;21084;51.098;14.506;2023-02-28T10:08:00;24.20;;;13.05;;
34872;SDS011;21084;51.098;14.506;2023-02-28T10:10:34;26.13;;;13.60;;
34872;SDS011;21084;51.098;14.506;2023-02-28T10:13:10;25.60;;;12.73;;
34872;SDS011;21084;51.098;14.506;2023-02-28T10:15:46;30.20;;;14.52;;
34872;SDS011;21084;51.098;14.506;2023-02-28T10:18:20;27.13;;;13.50;;
34872;SDS011;21084;51.098;14.506;2023-02-28T10:20:53;27.58;;;14.07;;
34872;SDS011;21084;51.098;14.506;2023-02-28T10:23:25;30.17;;;15.23;;
34872;SDS011;21084;51.098;14.506;2023-02-28T10:25:57;31.17;;;14.13;;
34872;SDS011;21084;51.098;14.506;2023-02-28T10:28:28;28.60;;;14.65;;
34872;SDS011;21084;51.098;14.506;2023-02-28T10:30:59;25.73;;;13.50;;
34872;SDS011;21084;51.098;14.506;2023-02-28T10:36:05;28.33;;;14.23;;
34872;SDS011;21084;51.098;14.506;2023-02-28T10:38:37;27.83;;;14.65;;
34872;SDS011;21084;51.098;14.506;2023-02-28T10:41:12;29.83;;;14.88;;
34872;SDS011;21084;51.098;14.506;2023-02-28T10:43:47;28.75;;;15.18;;
34872;SDS011;21084;51.098;14.506;2023-02-28T10:46:49;29.63;;;15.60;;
34872;SDS011;21084;51.098;14.506;2023-02-28T10:49:34;31.77;;;14.20;;
34872;SDS011;21084;51.098;14.506;2023-02-28T10:55:15;27.67;;;14.73;;
34872;SDS011;21084;51.098;14.506;2023-02-28T10:58:02;31.67;;;14.88;;
34872;SDS011;21084;51.098;14.506;2023-02-28T11:00:36;35.10;;;15.27;;
34872;SDS011;21084;51.098;14.506;2023-02-28T11:03:12;29.52;;;14.68;;
34872;SDS011;21084;51.098;14.506;2023-02-28T11:05:57;27.23;;;15.05;;
34872;SDS011;21084;51.098;14.506;2023-02-28T11:08:31;28.80;;;14.68;;
34872;SDS011;21084;51.098;14.506;2023-02-28T11:11:13;30.05;;;15.57;;
34872;SDS011;21084;51.098;14.506;2023-02-28T11:16:39;28.48;;;15.40;;
34872;SDS011;21084;51.098;14.506;2023-02-28T11:19:22;36.97;;;15.20;;
34872;SDS011;21084;51.098;14.506;2023-02-28T11:21:55;32.90;;;15.68;;
34872;SDS011;21084;51.098;14.506;2023-02-28T11:24:30;29.85;;;15.70;;
34872;SDS011;21084;51.098;14.506;2023-02-28T11:27:03;27.92;;;14.63;;
34872;SDS011;21084;51.098;14.506;2023-02-28T11:29:39;32.47;;;14.77;;
34872;SDS011;21084;51.098;14.506;2023-02-28T11:32:16;27.88;;;14.52;;
34872;SDS011;21084;51.098;14.506;2023-02-28T11:35:00;29.35;;;15.15;;
34872;SDS011;21084;51.098;14.506;2023-02-28T11:37:37;31.75;;;15.07;;
34872;SDS011;21084;51.098;14.506;2023-02-28T11:42:55;32.45;;;15.75;;
34872;SDS011;21084;51.098;14.506;2023-02-28T11:45:45;30.98;;;15.10;;
34872;SDS011;21084;51.098;14.506;2023-02-28T11:48:26;27.42;;;14.35;;
34872;SDS011;21084;51.098;14.506;2023-02-28T11:51:12;24.15;;;14.13;;
34872;SDS011;21084;51.098;14.506;2023-02-28T11:53:51;26.85;;;13.80;;
34872;SDS011;21084;51.098;14.506;2023-02-28T11:56:41;25.55;;;13.73;;
34872;SDS011;21084;51.098;14.506;2023-02-28T11:59:27;28.13;;;14.00;;
34872;SDS011;21084;51.098;14.506;2023-02-28T12:05:13;25.63;;;14.40;;
34872;SDS011;21084;51.098;14.506;2023-02-28T12:07:55;30.75;;;14.57;;
34872;SDS011;21084;51.098;14.506;2023-02-28T12:10:38;28.55;;;16.10;;
34872;SDS011;21084;51.098;14.506;2023-02-28T12:13:26;31.50;;;15.38;;
34872;SDS011;21084;51.098;14.506;2023-02-28T12:19:11;30.92;;;14.98;;
34872;SDS011;21084;51.098;14.506;2023-02-28T12:27:58;23.77;;;15.25;;
34872;SDS011;21084;51.098;14.506;2023-02-28T12:30:30;29.83;;;15.18;;
34872;SDS011;21084;51.098;14.506;2023-02-28T12:33:03;27.83;;;14.77;;
34872;SDS011;21084;51.098;14.506;2023-02-28T12:35:36;27.08;;;14.52;;
34872;SDS011;21084;51.098;14.506;2023-02-28T12:38:09;29.40;;;14.32;;
34872;SDS011;21084;51.098;14.506;2023-02-28T12:40:45;25.38;;;14.85;;
34872;SDS011;21084;51.098;14.506;2023-02-28T12:43:18;25.10;;;13.82;;
34872;SDS011;21084;51.098;14.506;2023-02-28T12:45:52;26.70;;;14.18;;
34872;SDS011;21084;51.098;14.506;2023-02-28T12:48:25;24.50;;;14.50;;
34872;SDS011;21084;51.098;14.506;2023-02-28T12:50:59;28.05;;;15.20;;
34872;SDS011;21084;51.098;14.506;2023-02-28T12:53:30;29.27;;;15.27;;
34872;SDS011;21084;51.098;14.506;2023-02-28T12:56:08;24.45;;;14.07;;
34872;SDS011;21084;51.098;14.506;2023-02-28T12:58:45;27.60;;;15.70;;
34872;SDS011;21084;51.098;14.506;2023-02-28T13:01:32;24.80;;;15.35;;
34872;SDS011;21084;51.098;14.506;2023-02-28T13:04:21;27.92;;;15.32;;
34872;SDS011;21084;51.098;14.506;2023-02-28T13:07:13;26.95;;;15.00;;
34872;SDS011;21084;51.098;14.506;2023-02-28T13:10:06;26.50;;;15.13;;
34872;SDS011;21084;51.098;14.506;2023-02-28T13:12:35;30.05;;;15.70;;
34872;SDS011;21084;51.098;14.506;2023-02-28T13:15:06;31.50;;;15.63;;
34872;SDS011;21084;51.098;14.506;2023-02-28T13:17:40;26.42;;;15.02;;
34872;SDS011;21084;51.098;14.506;2023-02-28T13:20:15;26.52;;;15.30;;
34872;SDS011;21084;51.098;14.506;2023-02-28T13:22:47;25.17;;;15.43;;
34872;SDS011;21084;51.098;14.506;2023-02-28T13:31:43;27.95;;;15.85;;
34872;SDS011;21084;51.098;14.506;2023-02-28T13:38:12;30.10;;;16.88;;
34872;SDS011;21084;51.098;14.506;2023-02-28T13:40:50;30.25;;;16.15;;
34872;SDS011;21084;51.098;14.506;2023-02-28T13:43:18;25.92;;;16.48;;
34872;SDS011;21084;51.098;14.506;2023-02-28T13:46:12;30.23;;;16.45;;
34872;SDS011;21084;51.098;14.506;2023-02-28T13:48:41;31.63;;;16.60;;
34872;SDS011;21084;51.098;14.506;2023-02-28T13:51:35;30.00;;;16.05;;
34872;SDS011;21084;51.098;14.506;2023-02-28T13:54:16;31.65;;;16.35;;
34872;SDS011;21084;51.098;14.506;2023-02-28T13:57:06;29.85;;;16.50;;
34872;SDS011;21084;51.098;14.506;2023-02-28T13:59:46;28.55;;;15.50;;
34872;SDS011;21084;51.098;14.506;2023-02-28T14:02:29;26.33;;;15.82;;
34872;SDS011;21084;51.098;14.506;2023-02-28T14:05:09;32.60;;;15.60;;
34872;SDS011;21084;51.098;14.506;2023-02-28T14:07:44;26.85;;;16.00;;
34872;SDS011;21084;51.098;14.506;2023-02-28T14:10:22;26.73;;;15.05;;
34872;SDS011;21084;51.098;14.506;2023-02-28T14:12:55;27.02;;;14.85;;
34872;SDS011;21084;51.098;14.506;2023-02-28T14:18:27;28.33;;;14.95;;
34872;SDS011;21084;51.098;14.506;2023-02-28T14:21:01;25.65;;;14.98;;
34872;SDS011;21084;51.098;14.506;2023-02-28T14:26:53;30.10;;;15.95;;
34872;SDS011;21084;51.098;14.506;2023-02-28T14:29:59;29.92;;;15.27;;
34872;SDS011;21084;51.098;14.506;2023-02-28T14:32:49;29.67;;;15.63;;
34872;SDS011;21084;51.098;14.506;2023-02-28T14:35:35;25.30;;;14.40;;
34872;SDS011;21084;51.098;14.506;2023-02-28T14:38:14;26.55;;;15.80;;
34872;SDS011;21084;51.098;14.506;2023-02-28T14:40:49;28.88;;;16.92;;
34872;SDS011;21084;51.098;14.506;2023-02-28T14:43:23;31.75;;;16.95;;
34872;SDS011;21084;51.098;14.506;2023-02-28T14:45:54;31.27;;;16.35;;
34872;SDS011;21084;51.098;14.506;2023-02-28T14:48:25;28.33;;;16.30;;
34872;SDS011;21084;51.098;14.506;2023-02-28T14:50:55;28.45;;;16.40;;
34872;SDS011;21084;51.098;14.506;2023-02-28T14:53:26;28.40;;;15.90;;
34872;SDS011;21084;51.098;14.506;2023-02-28T14:55:57;29.52;;;16.75;;
34872;SDS011;21084;51.098;14.506;2023-02-28T14:58:30;28.42;;;16.58;;
34872;SDS011;21084;51.098;14.506;2023-02-28T15:01:00;30.83;;;16.23;;
34872;SDS011;21084;51.098;14.506;2023-02-28T15:03:31;27.15;;;16.77;;
34872;SDS011;21084;51.098;14.506;2023-02-28T15:06:02;28.17;;;16.30;;
34872;SDS011;21084;51.098;14.506;2023-02-28T15:08:32;33.15;;;18.35;;
34872;SDS011;21084;51.098;14.506;2023-02-28T15:11:04;28.33;;;16.02;;
34872;SDS011;21084;51.098;14.506;2023-02-28T15:13:38;28.00;;;15.55;;
34872;SDS011;21084;51.098;14.506;2023-02-28T15:16:11;27.00;;;14.02;;
34872;SDS011;21084;51.098;14.506;2023-02-28T15:18:43;31.83;;;16.00;;
34872;SDS011;21084;51.098;14.506;2023-02-28T15:21:16;30.20;;;15.70;;
34872;SDS011;21084;51.098;14.506;2023-02-28T15:23:48;26.77;;;14.50;;
34872;SDS011;21084;51.098;14.506;2023-02-28T15:26:21;30.92;;;16.25;;
34872;SDS011;21084;51.098;14.506;2023-02-28T15:28:56;27.75;;;16.42;;
34872;SDS011;21084;51.098;14.506;2023-02-28T15:31:27;33.28;;;18.45;;
34872;SDS011;21084;51.098;14.506;2023-02-28T15:34:12;54.47;;;28.23;;
34872;SDS011;21084;51.098;14.506;2023-02-28T15:36:47;54.05;;;26.90;;
34872;SDS011;21084;51.098;14.506;2023-02-28T15:39:20;50.13;;;23.48;;
34872;SDS011;21084;51.098;14.506;2023-02-28T15:41:50;64.30;;;29.23;;
34872;SDS011;21084;51.098;14.506;2023-02-28T15:44:27;56.83;;;27.08;;
34872;SDS011;21084;51.098;14.506;2023-02-28T15:47:04;29.27;;;17.33;;
34872;SDS011;21084;51.098;14.506;2023-02-28T15:49:37;34.85;;;17.70;;
34872;SDS011;21084;51.098;14.506;2023-02-28T15:52:12;66.93;;;35.83;;
34872;SDS011;21084;51.098;14.506;2023-02-28T15:54:43;41.25;;;23.60;;
34872;SDS011;21084;51.098;14.506;2023-02-28T15:57:13;40.35;;;21.20;;
34872;SDS011;21084;51.098;14.506;2023-02-28T15:59:48;35.15;;;19.50;;
34872;SDS011;21084;51.098;14.506;2023-02-28T16:02:21;37.78;;;20.80;;
34872;SDS011;21084;51.098;14.506;2023-02-28T16:04:59;40.70;;;19.73;;
34872;SDS011;21084;51.098;14.506;2023-02-28T16:07:30;36.47;;;20.13;;
34872;SDS011;21084;51.098;14.506;2023-02-28T16:09:58;38.10;;;20.92;;
34872;SDS011;21084;51.098;14.506;2023-02-28T16:12:28;40.58;;;21.67;;
34872;SDS011;21084;51.098;14.506;2023-02-28T16:15:00;39.25;;;19.98;;
34872;SDS011;21084;51.098;14.506;2023-02-28T16:17:34;37.20;;;18.45;;
34872;SDS011;21084;51.098;14.506;2023-02-28T16:20:06;33.05;;;19.75;;
34872;SDS011;21084;51.098;14.506;2023-02-28T16:22:41;34.92;;;18.55;;
34872;SDS011;21084;51.098;14.506;2023-02-28T16:25:11;34.55;;;16.25;;
34872;SDS011;21084;51.098;14.506;2023-02-28T16:27:40;33.28;;;17.05;;
34872;SDS011;21084;51.098;14.506;2023-02-28T16:32:48;31.10;;;16.23;;
34872;SDS011;21084;51.098;14.506;2023-02-28T16:35:18;31.15;;;16.55;;
34872;SDS011;21084;51.098;14.506;2023-02-28T16:37:47;32.35;;;16.73;;
34872;SDS011;21084;51.098;14.506;2023-02-28T16:40:19;38.05;;;16.95;;
34872;SDS011;21084;51.098;14.506;2023-02-28T16:42:50;31.95;;;16.42;;
34872;SDS011;21084;51.098;14.506;2023-02-28T16:45:23;36.03;;;15.80;;
34872;SDS011;21084;51.098;14.506;2023-02-28T16:47:53;32.15;;;16.33;;
34872;SDS011;21084;51.098;14.506;2023-02-28T16:50:24;37.22;;;17.45;;
34872;SDS011;21084;51.098;14.506;2023-02-28T16:52:53;35.47;;;18.30;;
34872;SDS011;21084;51.098;14.506;2023-02-28T16:55:22;42.67;;;24.23;;
34872;SDS011;21084;51.098;14.506;2023-02-28T16:57:52;112.50;;;47.80;;
34872;SDS011;21084;51.098;14.506;2023-02-28T17:00:25;135.85;;;54.85;;
34872;SDS011;21084;51.098;14.506;2023-02-28T17:02:55;145.43;;;53.80;;